createdAt,value
2022-10-01T00:01:17.102Z,16.58
2022-10-01T00:03:44.480Z,19.60
2022-10-01T00:06:17.730Z,19.48
2022-10-01T00:08:49.261Z,15.95
2022-10-01T00:11:21.991Z,19.50
2022-10-01T00:13:48.790Z,15.70
2022-10-01T00:16:26.979Z,16.30
2022-10-01T00:18:54.486Z,17.63
2022-10-01T00:21:30.028Z,19.13
2022-10-01T00:24:03.088Z,21.02
2022-10-01T00:26:32.328Z,16.15
2022-10-01T00:29:02.093Z,19.52
2022-10-01T00:31:29.831Z,17.63
2022-10-01T00:33:58.432Z,19.77
2022-10-01T00:36:26.195Z,26.85
2022-10-01T00:38:53.341Z,22.48
2022-10-01T00:41:20.118Z,26.50
2022-10-01T00:44:25.604Z,25.00
2022-10-01T00:46:54.942Z,22.33
2022-10-01T00:49:27.544Z,19.33
2022-10-01T00:51:58.034Z,22.67
2022-10-01T00:54:33.453Z,20.00
2022-10-01T00:57:01.508Z,21.13
2022-10-01T00:59:29.324Z,21.70
2022-10-01T01:01:56.147Z,20.83
2022-10-01T01:04:22.955Z,22.48
2022-10-01T01:06:57.669Z,17.17
2022-10-01T01:09:37.314Z,17.23
2022-10-01T01:12:30.251Z,18.58
2022-10-01T01:15:11.736Z,17.57
2022-10-01T01:18:22.935Z,13.90
2022-10-01T01:21:09.467Z,14.88
2022-10-01T01:24:03.309Z,14.10
2022-10-01T01:26:51.570Z,15.10
2022-10-01T01:29:35.006Z,20.17
2022-10-01T01:32:14.774Z,14.83
2022-10-01T01:34:45.492Z,16.90
2022-10-01T01:37:15.386Z,13.40
2022-10-01T01:39:46.190Z,12.93
2022-10-01T01:42:22.265Z,14.02
2022-10-01T01:44:53.204Z,13.45
2022-10-01T01:47:23.520Z,18.20
2022-10-01T01:49:52.461Z,16.15
2022-10-01T01:52:19.261Z,14.30
2022-10-01T01:54:49.741Z,14.00
2022-10-01T01:57:18.167Z,13.85
2022-10-01T01:59:45.487Z,14.55
2022-10-01T02:02:35.859Z,12.88
2022-10-01T02:05:09.602Z,15.07
2022-10-01T02:08:00.424Z,13.68
2022-10-01T02:10:45.639Z,17.27
2022-10-01T02:13:35.093Z,16.73
2022-10-01T02:16:14.981Z,17.45
2022-10-01T02:19:03.267Z,21.23
2022-10-01T02:21:50.547Z,18.90
2022-10-01T02:24:17.520Z,14.50
2022-10-01T02:26:47.633Z,17.48
2022-10-01T02:29:18.535Z,18.92
2022-10-01T02:31:47.344Z,17.77
2022-10-01T02:34:20.080Z,19.77
2022-10-01T02:36:48.818Z,20.33
2022-10-01T02:39:18.241Z,20.65
2022-10-01T02:41:48.029Z,19.73
2022-10-01T02:44:22.830Z,17.75
2022-10-01T02:47:04.443Z,19.65
2022-10-01T02:49:32.009Z,18.40
2022-10-01T02:52:08.916Z,17.65
2022-10-01T02:54:58.239Z,18.40
2022-10-01T02:57:29.586Z,14.27
2022-10-01T03:00:03.204Z,17.85
2022-10-01T03:02:31.543Z,18.60
2022-10-01T03:04:59.189Z,21.10
2022-10-01T03:07:27.623Z,19.27
2022-10-01T03:09:54.572Z,22.88
2022-10-01T03:12:21.829Z,19.50
2022-10-01T03:14:48.591Z,15.43
2022-10-01T03:17:16.321Z,20.00
2022-10-01T03:19:43.259Z,18.38
2022-10-01T03:22:12.817Z,16.35
2022-10-01T03:24:39.606Z,16.63
2022-10-01T03:27:06.663Z,17.98
2022-10-01T03:29:33.405Z,23.17
2022-10-01T03:32:00.262Z,18.27
2022-10-01T03:34:27.113Z,18.42
2022-10-01T03:36:53.932Z,18.52
2022-10-01T03:39:20.887Z,15.75
2022-10-01T03:41:47.706Z,14.93
2022-10-01T03:44:14.535Z,16.80
2022-10-01T03:46:41.575Z,15.73
2022-10-01T03:49:08.290Z,13.88
2022-10-01T03:51:37.362Z,17.42
2022-10-01T03:54:05.825Z,17.90
2022-10-01T03:56:33.317Z,14.65
2022-10-01T03:59:00.178Z,15.23
2022-10-01T04:01:27.270Z,21.08
2022-10-01T04:03:54.308Z,15.20
2022-10-01T04:06:21.079Z,17.38
2022-10-01T04:08:48.039Z,15.82
2022-10-01T04:11:15.025Z,17.52
2022-10-01T04:13:41.764Z,17.25
2022-10-01T04:16:08.954Z,13.80
2022-10-01T04:18:36.118Z,15.10
2022-10-01T04:21:03.073Z,13.63
2022-10-01T04:23:29.804Z,16.60
2022-10-01T04:26:05.471Z,14.57
2022-10-01T04:28:32.316Z,12.65
2022-10-01T04:31:17.944Z,14.77
2022-10-01T04:33:45.350Z,19.17
2022-10-01T04:36:12.064Z,15.93
2022-10-01T04:38:38.822Z,18.85
2022-10-01T04:41:05.852Z,17.25
2022-10-01T04:43:32.736Z,13.85
2022-10-01T04:45:59.540Z,19.05
2022-10-01T04:48:26.400Z,20.13
2022-10-01T04:50:53.168Z,19.48
2022-10-01T04:53:19.879Z,16.52
2022-10-01T04:55:46.694Z,17.95
2022-10-01T04:58:13.635Z,22.63
2022-10-01T05:00:40.841Z,29.30
2022-10-01T05:03:07.572Z,22.42
2022-10-01T05:05:35.046Z,20.88
2022-10-01T05:08:02.181Z,18.83
2022-10-01T05:10:29.188Z,17.45
2022-10-01T05:12:56.752Z,19.13
2022-10-01T05:15:23.500Z,16.30
2022-10-01T05:17:50.264Z,14.20
2022-10-01T05:20:19.913Z,15.10
2022-10-01T05:22:47.390Z,14.10
2022-10-01T05:25:14.615Z,16.40
2022-10-01T05:27:41.676Z,11.60
2022-10-01T05:30:10.561Z,14.30
2022-10-01T05:32:37.916Z,17.48
2022-10-01T05:35:07.061Z,14.55
2022-10-01T05:37:34.534Z,14.50
2022-10-01T05:40:01.714Z,15.48
2022-10-01T05:42:28.484Z,13.30
2022-10-01T05:44:56.111Z,14.65
2022-10-01T05:47:23.207Z,21.70
2022-10-01T05:49:49.921Z,36.38
2022-10-01T05:52:16.765Z,72.15
2022-10-01T05:54:43.581Z,86.03
2022-10-01T05:57:10.681Z,78.97
2022-10-01T05:59:37.438Z,74.40
2022-10-01T06:02:04.617Z,62.38
2022-10-01T06:04:31.458Z,54.85
2022-10-01T06:06:58.261Z,49.67
2022-10-01T06:09:25.228Z,42.72
2022-10-01T06:11:51.964Z,35.75
2022-10-01T06:14:18.943Z,39.90
2022-10-01T06:16:46.923Z,42.10
2022-10-01T06:19:13.956Z,32.92
2022-10-01T06:21:40.673Z,43.45
2022-10-01T06:24:07.483Z,42.75
2022-10-01T06:26:34.209Z,41.55
2022-10-01T06:29:02.642Z,35.28
2022-10-01T06:31:30.072Z,25.73
2022-10-01T06:33:56.843Z,21.35
2022-10-01T06:36:23.544Z,21.00
2022-10-01T06:38:50.343Z,24.02
2022-10-01T06:41:17.056Z,18.05
2022-10-01T06:43:44.090Z,18.75
2022-10-01T06:46:11.263Z,15.68
2022-10-01T06:48:38.068Z,20.45
2022-10-01T06:51:05.779Z,21.02
2022-10-01T06:53:32.632Z,15.97
2022-10-01T06:56:04.843Z,17.70
2022-10-01T06:58:31.713Z,17.90
2022-10-01T07:01:01.456Z,16.08
2022-10-01T07:03:28.453Z,15.77
2022-10-01T07:06:02.231Z,14.60
2022-10-01T07:08:29.043Z,18.73
2022-10-01T07:11:03.343Z,17.93
2022-10-01T07:13:30.191Z,19.63
2022-10-01T07:15:57.176Z,32.33
2022-10-01T07:18:23.965Z,21.27
2022-10-01T07:20:50.723Z,14.93
2022-10-01T07:23:17.958Z,19.53
2022-10-01T07:25:45.631Z,15.93
2022-10-01T07:28:17.823Z,18.80
2022-10-01T07:31:14.977Z,15.67
2022-10-01T07:33:42.028Z,18.07
2022-10-01T07:36:11.292Z,14.60
2022-10-01T07:38:38.012Z,12.73
2022-10-01T07:41:04.999Z,13.73
2022-10-01T07:43:34.161Z,11.60
2022-10-01T07:46:02.008Z,12.07
2022-10-01T07:48:28.800Z,13.40
2022-10-01T07:50:56.476Z,11.57
2022-10-01T07:53:24.052Z,11.43
2022-10-01T07:55:50.802Z,10.27
2022-10-01T07:58:18.701Z,10.43
2022-10-01T08:00:45.532Z,9.87
2022-10-01T08:03:12.410Z,12.17
2022-10-01T08:05:41.430Z,11.07
2022-10-01T08:08:08.752Z,15.23
2022-10-01T08:10:37.917Z,11.17
2022-10-01T08:13:14.481Z,11.60
2022-10-01T08:15:42.793Z,8.63
2022-10-01T08:18:10.955Z,10.50
2022-10-01T08:20:41.799Z,16.63
2022-10-01T08:23:11.300Z,10.07
2022-10-01T08:25:38.534Z,9.20
2022-10-01T08:28:06.528Z,13.57
2022-10-01T08:30:33.643Z,7.27
2022-10-01T08:33:01.903Z,9.30
2022-10-01T08:35:30.181Z,7.60
2022-10-01T08:38:06.735Z,8.33
2022-10-01T08:40:36.839Z,11.13
2022-10-01T08:43:16.494Z,11.00
2022-10-01T08:45:49.240Z,9.97
2022-10-01T08:48:56.851Z,8.30
2022-10-01T08:51:32.790Z,10.30
2022-10-01T08:54:11.841Z,5.57
2022-10-01T08:56:45.279Z,6.80
2022-10-01T08:59:40.975Z,10.60
2022-10-01T09:02:21.674Z,6.50
2022-10-01T09:04:51.485Z,6.33
2022-10-01T09:07:49.613Z,5.23
2022-10-01T09:10:31.729Z,4.63
2022-10-01T09:13:27.785Z,6.23
2022-10-01T09:16:24.299Z,10.23
2022-10-01T09:18:58.821Z,6.80
2022-10-01T09:21:36.778Z,5.60
2022-10-01T09:24:15.603Z,5.20
2022-10-01T09:26:46.630Z,9.30
2022-10-01T09:29:35.661Z,9.30
2022-10-01T09:32:05.947Z,6.87
2022-10-01T09:34:40.194Z,5.60
2022-10-01T09:37:18.815Z,7.10
2022-10-01T09:40:04.983Z,3.60
2022-10-01T09:42:32.127Z,5.30
2022-10-01T09:44:59.599Z,4.60
2022-10-01T09:47:26.531Z,8.60
2022-10-01T09:49:53.271Z,5.87
2022-10-01T09:52:34.541Z,12.33
2022-10-01T09:55:27.203Z,6.13
2022-10-01T09:57:58.023Z,4.00
2022-10-01T10:00:27.005Z,4.70
2022-10-01T10:02:55.513Z,5.57
2022-10-01T10:05:30.341Z,4.53
2022-10-01T10:08:05.934Z,3.50
2022-10-01T10:10:35.785Z,4.33
2022-10-01T10:13:11.340Z,4.40
2022-10-01T10:15:49.513Z,4.10
2022-10-01T10:18:22.969Z,7.60
2022-10-01T10:20:53.930Z,11.30
2022-10-01T10:23:23.197Z,3.87
2022-10-01T10:26:00.817Z,3.63
2022-10-01T10:28:29.668Z,3.13
2022-10-01T10:30:57.932Z,3.20
2022-10-01T10:33:26.373Z,3.50
2022-10-01T10:36:06.733Z,3.70
2022-10-01T10:38:34.916Z,3.80
2022-10-01T10:41:03.846Z,3.17
2022-10-01T10:43:37.963Z,4.13
2022-10-01T10:46:07.118Z,5.00
2022-10-01T10:48:43.895Z,5.20
2022-10-01T10:51:10.684Z,3.13
2022-10-01T10:53:45.366Z,2.53
2022-10-01T10:56:22.625Z,5.67
2022-10-01T10:58:51.374Z,8.40
2022-10-01T11:01:26.962Z,2.80
2022-10-01T11:03:57.417Z,2.53
2022-10-01T11:06:24.413Z,3.90
2022-10-01T11:09:00.493Z,2.97
2022-10-01T11:11:51.175Z,5.60
2022-10-01T11:14:42.071Z,3.70
2022-10-01T11:17:56.864Z,39.67
2022-10-01T11:20:32.290Z,13.53
2022-10-01T11:22:58.968Z,7.40
2022-10-01T11:25:31.391Z,2.77
2022-10-01T11:28:26.968Z,7.60
2022-10-01T11:31:12.071Z,11.20
2022-10-01T11:34:14.379Z,9.40
2022-10-01T11:37:10.676Z,6.47
2022-10-01T11:39:42.411Z,5.00
2022-10-01T11:42:22.118Z,3.53
2022-10-01T11:45:04.209Z,2.33
2022-10-01T11:47:41.678Z,2.60
2022-10-01T11:50:25.377Z,2.80
2022-10-01T11:53:04.745Z,2.57
2022-10-01T11:55:59.791Z,4.20
2022-10-01T11:58:50.820Z,2.70
2022-10-01T12:01:46.273Z,7.10
2022-10-01T12:04:32.442Z,3.10
2022-10-01T12:07:26.746Z,2.60
2022-10-01T12:09:53.577Z,2.00
2022-10-01T12:12:28.880Z,8.50
2022-10-01T12:15:28.626Z,2.37
2022-10-01T12:18:15.716Z,7.80
2022-10-01T12:20:47.588Z,4.20
2022-10-01T12:23:18.776Z,3.33
2022-10-01T12:25:49.028Z,6.53
2022-10-01T12:28:27.619Z,4.13
2022-10-01T12:31:05.158Z,2.57
2022-10-01T12:33:43.772Z,7.33
2022-10-01T12:36:26.318Z,7.60
2022-10-01T12:39:13.307Z,5.00
2022-10-01T12:41:41.068Z,6.80
2022-10-01T12:44:13.839Z,9.83
2022-10-01T12:46:47.398Z,4.60
2022-10-01T12:49:42.090Z,5.33
2022-10-01T12:52:34.694Z,8.73
2022-10-01T12:55:34.276Z,14.20
2022-10-01T12:58:17.917Z,8.67
2022-10-01T13:00:55.827Z,7.13
2022-10-01T13:03:25.514Z,10.50
2022-10-01T13:06:14.748Z,10.87
2022-10-01T13:09:08.499Z,8.93
2022-10-01T13:11:54.370Z,4.20
2022-10-01T13:14:22.560Z,7.03
2022-10-01T13:16:58.845Z,8.73
2022-10-01T13:19:48.100Z,8.97
2022-10-01T13:22:47.636Z,9.13
2022-10-01T13:25:33.119Z,10.50
2022-10-01T13:28:36.244Z,13.50
2022-10-01T13:31:13.058Z,7.10
2022-10-01T13:33:39.852Z,17.03
2022-10-01T13:36:08.254Z,8.80
2022-10-01T13:38:37.764Z,1.33
2022-10-01T13:41:23.935Z,2.30
2022-10-01T13:44:14.989Z,1.73
2022-10-01T13:46:59.153Z,1.10
2022-10-01T13:49:30.780Z,1.63
2022-10-01T13:51:58.303Z,1.33
2022-10-01T13:54:39.878Z,1.53
2022-10-01T13:57:11.536Z,3.80
2022-10-01T13:59:38.804Z,1.47
2022-10-01T14:03:00.401Z,2.70
2022-10-01T14:05:36.599Z,1.40
2022-10-01T14:08:26.053Z,1.13
2022-10-01T14:11:34.292Z,1.20
2022-10-01T14:14:30.611Z,1.60
2022-10-01T14:16:58.855Z,2.07
2022-10-01T14:19:27.664Z,2.00
2022-10-01T14:22:03.636Z,1.60
2022-10-01T14:24:57.537Z,1.10
2022-10-01T14:27:29.996Z,2.07
2022-10-01T14:30:13.532Z,1.27
2022-10-01T14:32:51.000Z,2.00
2022-10-01T14:35:39.129Z,1.33
2022-10-01T14:38:13.866Z,1.33
2022-10-01T14:40:43.444Z,1.03
2022-10-01T14:43:25.403Z,1.90
2022-10-01T14:45:56.802Z,1.57
2022-10-01T14:48:25.643Z,2.03
2022-10-01T14:50:57.835Z,1.63
2022-10-01T14:53:27.921Z,2.30
2022-10-01T14:55:58.041Z,2.40
2022-10-01T14:58:31.879Z,1.53
2022-10-01T15:01:00.336Z,2.37
2022-10-01T15:03:35.445Z,3.00
2022-10-01T15:06:05.340Z,2.60
2022-10-01T15:08:47.728Z,5.77
2022-10-01T15:11:19.793Z,2.40
2022-10-01T15:13:49.457Z,5.10
2022-10-01T15:16:19.219Z,3.17
2022-10-01T15:18:50.172Z,1.30
2022-10-01T15:21:22.930Z,1.67
2022-10-01T15:23:50.385Z,1.73
2022-10-01T15:26:23.076Z,1.70
2022-10-01T15:28:49.901Z,2.23
2022-10-01T15:31:17.265Z,3.03
2022-10-01T15:33:44.526Z,2.60
2022-10-01T15:36:18.191Z,2.17
2022-10-01T15:38:48.958Z,2.03
2022-10-01T15:41:33.144Z,2.17
2022-10-01T15:44:05.355Z,3.53
2022-10-01T15:46:35.120Z,1.87
2022-10-01T15:49:20.735Z,6.03
2022-10-01T15:52:12.295Z,1.50
2022-10-01T15:54:42.329Z,2.90
2022-10-01T15:57:15.609Z,5.00
2022-10-01T15:59:42.385Z,1.73
2022-10-01T16:02:16.227Z,1.97
2022-10-01T16:04:42.985Z,4.83
2022-10-01T16:07:22.615Z,2.90
2022-10-01T16:09:56.058Z,1.77
2022-10-01T16:12:23.324Z,2.97
2022-10-01T16:15:01.878Z,8.53
2022-10-01T16:17:38.014Z,5.23
2022-10-01T16:20:45.588Z,1.80
2022-10-01T16:23:39.815Z,2.90
2022-10-01T16:26:28.429Z,2.33
2022-10-01T16:29:04.503Z,3.33
2022-10-01T16:31:31.948Z,7.60
2022-10-01T16:33:58.824Z,1.87
2022-10-01T16:36:26.372Z,2.40
2022-10-01T16:38:53.589Z,5.70
2022-10-01T16:41:23.112Z,2.47
2022-10-01T16:43:51.397Z,4.07
2022-10-01T16:46:18.173Z,4.10
2022-10-01T16:48:48.004Z,4.47
2022-10-01T16:51:14.807Z,3.33
2022-10-01T16:53:42.902Z,4.33
2022-10-01T16:56:10.838Z,8.17
2022-10-01T16:58:41.730Z,11.00
2022-10-01T17:01:10.095Z,6.83
2022-10-01T17:03:36.857Z,9.00
2022-10-01T17:06:03.718Z,1.90
2022-10-01T17:08:30.518Z,5.00
2022-10-01T17:11:00.240Z,5.60
2022-10-01T17:13:34.995Z,1.43
2022-10-01T17:16:02.273Z,2.70
2022-10-01T17:18:29.109Z,3.60
2022-10-01T17:20:56.269Z,1.40
2022-10-01T17:23:23.664Z,6.20
2022-10-01T17:25:50.847Z,3.10
2022-10-01T17:28:20.203Z,2.30
2022-10-01T17:30:48.465Z,3.07
2022-10-01T17:33:19.137Z,1.40
2022-10-01T17:35:51.653Z,4.07
2022-10-01T17:38:19.454Z,4.27
2022-10-01T17:40:46.658Z,4.80
2022-10-01T17:43:15.260Z,3.33
2022-10-01T17:45:43.013Z,2.07
2022-10-01T17:48:12.357Z,3.97
2022-10-01T17:50:43.540Z,3.23
2022-10-01T17:53:11.399Z,8.30
2022-10-01T17:55:42.500Z,2.73
2022-10-01T17:58:09.958Z,2.67
2022-10-01T18:00:37.238Z,2.03
2022-10-01T18:03:04.454Z,3.60
2022-10-01T18:05:31.433Z,2.50
2022-10-01T18:07:58.135Z,6.37
2022-10-01T18:10:24.988Z,3.43
2022-10-01T18:12:51.719Z,2.70
2022-10-01T18:15:20.730Z,9.77
2022-10-01T18:17:52.003Z,1.70
2022-10-01T18:20:20.628Z,1.00
2022-10-01T18:22:47.552Z,2.10
2022-10-01T18:25:16.052Z,1.37
2022-10-01T18:27:43.555Z,2.47
2022-10-01T18:30:10.833Z,1.53
2022-10-01T18:32:44.751Z,2.83
2022-10-01T18:35:26.976Z,2.63
2022-10-01T18:37:57.878Z,2.10
2022-10-01T18:40:34.633Z,3.13
2022-10-01T18:43:15.987Z,5.17
2022-10-01T18:45:45.594Z,1.40
2022-10-01T18:48:38.615Z,4.13
2022-10-01T18:51:17.405Z,1.37
2022-10-01T18:54:08.832Z,1.60
2022-10-01T18:56:37.421Z,1.93
2022-10-01T18:59:22.178Z,3.70
2022-10-01T19:02:20.979Z,4.43
2022-10-01T19:05:07.687Z,1.73
2022-10-01T19:07:46.546Z,3.50
2022-10-01T19:10:22.888Z,1.80
2022-10-01T19:13:03.152Z,2.90
2022-10-01T19:16:02.181Z,2.80
2022-10-01T19:18:37.884Z,3.93
2022-10-01T19:21:13.761Z,4.23
2022-10-01T19:24:01.742Z,3.43
2022-10-01T19:26:31.110Z,3.83
2022-10-01T19:29:19.655Z,2.13
2022-10-01T19:31:56.235Z,3.60
2022-10-01T19:34:48.295Z,3.53
2022-10-01T19:37:33.745Z,5.20
2022-10-01T19:40:14.639Z,2.23
2022-10-01T19:42:47.611Z,1.43
2022-10-01T19:45:25.666Z,5.50
2022-10-01T19:48:07.921Z,5.53
2022-10-01T19:50:39.618Z,3.67
2022-10-01T19:53:21.473Z,3.30
2022-10-01T19:55:51.517Z,2.53
2022-10-01T19:58:20.414Z,3.63
2022-10-01T20:00:52.571Z,6.47
2022-10-01T20:03:39.585Z,5.00
2022-10-01T20:06:37.682Z,1.70
2022-10-01T20:09:34.579Z,1.87
2022-10-01T20:12:16.232Z,1.33
2022-10-01T20:15:10.415Z,4.53
2022-10-01T20:17:47.790Z,4.40
2022-10-01T20:20:50.832Z,2.40
2022-10-01T20:23:45.263Z,9.70
2022-10-01T20:26:21.164Z,3.13
2022-10-01T20:29:18.402Z,2.33
2022-10-01T20:32:10.548Z,4.10
2022-10-01T20:34:42.036Z,3.10
2022-10-01T20:37:22.884Z,3.10
2022-10-01T20:39:59.883Z,2.20
2022-10-01T20:42:35.499Z,5.37
2022-10-01T20:45:04.444Z,1.83
2022-10-01T20:47:40.385Z,4.60
2022-10-01T20:50:19.298Z,4.37
2022-10-01T20:53:03.928Z,5.70
2022-10-01T20:55:45.319Z,7.87
2022-10-01T20:58:19.296Z,3.90
2022-10-01T21:00:47.771Z,3.30
2022-10-01T21:03:32.071Z,5.83
2022-10-01T21:06:04.782Z,4.30
2022-10-01T21:08:47.452Z,3.47
2022-10-01T21:11:19.736Z,6.23
2022-10-01T21:14:00.592Z,3.73
2022-10-01T21:16:56.760Z,7.73
2022-10-01T21:19:29.240Z,8.20
2022-10-01T21:22:33.279Z,2.33
2022-10-01T21:25:26.890Z,1.93
2022-10-01T21:28:31.427Z,2.60
2022-10-01T21:31:34.461Z,8.53
2022-10-01T21:34:26.284Z,3.33
2022-10-01T21:37:03.844Z,5.80
2022-10-01T21:39:38.155Z,2.80
2022-10-01T21:42:13.905Z,4.73
2022-10-01T21:45:07.680Z,11.60
2022-10-01T21:48:01.550Z,2.43
2022-10-01T21:50:44.465Z,7.80
2022-10-01T21:53:29.068Z,6.83
2022-10-01T21:56:26.485Z,3.63
2022-10-01T21:58:53.147Z,7.93
2022-10-01T22:01:41.188Z,6.50
2022-10-01T22:04:16.581Z,14.00
2022-10-01T22:06:53.176Z,2.60
2022-10-01T22:09:43.201Z,9.83
2022-10-01T22:12:11.738Z,6.37
2022-10-01T22:14:40.405Z,9.70
2022-10-01T22:17:17.605Z,5.97
2022-10-01T22:19:51.110Z,5.03
2022-10-01T22:22:25.718Z,5.30
2022-10-01T22:24:53.587Z,8.83
2022-10-01T22:27:44.190Z,4.60
2022-10-01T22:30:17.677Z,9.30
2022-10-01T22:32:51.470Z,5.50
2022-10-01T22:35:38.535Z,10.13
2022-10-01T22:38:26.363Z,5.80
2022-10-01T22:41:36.407Z,4.90
2022-10-01T22:44:15.372Z,2.73
2022-10-01T22:46:51.346Z,8.37
2022-10-01T22:49:33.958Z,5.13
2022-10-01T22:52:01.701Z,11.83
2022-10-01T22:54:59.365Z,7.37
2022-10-01T22:57:28.923Z,7.20
2022-10-01T23:00:10.921Z,9.47
2022-10-01T23:02:48.193Z,12.17
2022-10-01T23:05:33.689Z,5.70
2022-10-01T23:08:06.115Z,4.10
2022-10-01T23:10:41.780Z,6.20
2022-10-01T23:13:33.875Z,4.03
2022-10-01T23:16:00.719Z,4.30
2022-10-01T23:18:57.455Z,2.47
2022-10-01T23:21:45.292Z,4.10
2022-10-01T23:24:29.688Z,8.07
2022-10-01T23:27:23.302Z,10.07
2022-10-01T23:30:11.586Z,7.43
2022-10-01T23:33:16.463Z,7.53
2022-10-01T23:35:51.897Z,4.67
2022-10-01T23:38:39.748Z,5.83
2022-10-01T23:41:18.985Z,7.57
2022-10-01T23:43:48.438Z,7.00
2022-10-01T23:46:17.599Z,4.60
2022-10-01T23:48:53.109Z,8.90
2022-10-01T23:51:27.488Z,4.77
2022-10-01T23:53:57.000Z,11.57
2022-10-01T23:56:49.189Z,13.10
2022-10-01T23:59:19.241Z,6.50
